TN25 weather

Methodist Hospital Central Heliport
Memphis, Tennessee, United States

Public forecast

Using degrees Fahrenheit for public forecast. Weather courtesy of forecast.io.

METAR (pilot weather report)

Closest report is Memphis International Airport, 6.0 nm (11.2 km) SSE. Retrieved 2019/06/24 16:54 UTC (39 minutes ago):

KMEM 241654Z 27009KT 10SM SCT022 BKN250 26/21 A2989 RMK AO2 SLP117 T02610206

TAF (pilot weather forecast)

Closest forecast is Memphis International Airport, 6.0 nm (11.2 km) SSE. Retrieved 2019/06/24 12:33 UTC (5 hours ago):

TAF KMEM 241131Z 2412/2518 VRB05KT P6SM VCSH SCT007 OVC090 TEMPO 2412/2415 BKN007 FM241500 22009G15KT P6SM BKN025 OVC120 FM241700 25012G18KT P6SM SCT035 BKN150 FM242300 23010KT P6SM FEW040 BKN250 FM250200 20005KT P6SM SCT250 FM251600 17009KT P6SM SCT150 SCT250